Time;durP1;ratioP1;P1;durP2;ratioP2;P2;SDS_P1;SDS_P2;PMS_P1;PMS_P2;Temp;Humidity;BMP_temperature;BMP_pressure;BME280_temperature;BME280_humidity;BME280_pressure;Samples;Min_cycle;Max_cycle;Signal;HPM_P1;HPM_P2
2023/09/24 00:02:19;;;;;;;8.30;3.50;;;12.30;72.10;;;;;;5080183;28;20789;-69
2023/09/24 00:04:45;;;;;;;9.13;3.35;;;12.20;72.10;;;;;;5095624;28;20409;-69
2023/09/24 00:07:10;;;;;;;7.93;3.00;;;12.20;72.50;;;;;;5089730;28;20386;-69
2023/09/24 00:09:37;;;;;;;7.07;3.28;;;12.30;72.80;;;;;;5090376;28;20949;-69
2023/09/24 00:12:03;;;;;;;9.18;3.10;;;12.30;73.20;;;;;;5103276;28;20395;-69
2023/09/24 00:14:30;;;;;;;9.07;3.05;;;12.30;73.50;;;;;;5103498;28;20408;-69
2023/09/24 00:16:57;;;;;;;6.22;2.92;;;12.30;73.60;;;;;;5091927;28;20404;-69
2023/09/24 00:19:23;;;;;;;7.20;3.00;;;12.30;73.70;;;;;;5108618;28;20405;-69
2023/09/24 00:21:49;;;;;;;7.25;2.92;;;12.40;73.90;;;;;;5101431;28;20402;-69
2023/09/24 00:24:17;;;;;;;6.20;2.97;;;12.40;74.30;;;;;;5104786;28;20882;-69
2023/09/24 00:26:46;;;;;;;7.00;2.92;;;12.40;74.40;;;;;;5089314;28;20405;-69
2023/09/24 00:29:13;;;;;;;6.75;2.90;;;12.40;74.50;;;;;;5092514;28;20421;-69
2023/09/24 00:31:39;;;;;;;8.05;2.92;;;12.50;74.70;;;;;;5101487;28;20511;-69
2023/09/24 00:34:05;;;;;;;6.35;2.88;;;12.50;74.70;;;;;;5091132;28;20515;-69
2023/09/24 00:36:32;;;;;;;6.78;2.90;;;12.50;74.60;;;;;;5104499;28;20388;-69
2023/09/24 00:38:59;;;;;;;7.22;2.85;;;12.50;74.80;;;;;;5098937;28;20434;-69
2023/09/24 00:41:25;;;;;;;7.15;3.05;;;12.50;74.80;;;;;;5105412;28;20402;-69
2023/09/24 00:43:50;;;;;;;7.68;2.97;;;12.50;74.60;;;;;;5101905;28;20749;-69
2023/09/24 00:46:16;;;;;;;8.53;3.20;;;12.60;74.70;;;;;;5101421;28;20411;-69
2023/09/24 00:48:43;;;;;;;10.85;3.83;;;12.60;74.80;;;;;;5101622;28;20432;-69
2023/09/24 00:51:17;;;;;;;9.57;3.30;;;12.60;74.80;;;;;;5089223;28;20402;-69
2023/09/24 00:53:43;;;;;;;8.57;3.20;;;12.60;74.80;;;;;;5070937;28;20463;-69
2023/09/24 00:56:09;;;;;;;8.15;2.72;;;12.60;74.70;;;;;;5089349;28;20402;-69
2023/09/24 00:58:35;;;;;;;9.68;2.70;;;12.60;74.80;;;;;;5059498;28;20483;-69
2023/09/24 01:01:03;;;;;;;7.88;2.60;;;12.60;74.60;;;;;;5088713;28;20521;-69
2023/09/24 01:03:30;;;;;;;8.13;2.63;;;12.60;74.40;;;;;;5090044;28;20406;-69
2023/09/24 01:05:56;;;;;;;5.63;2.80;;;12.50;74.10;;;;;;5084394;28;20433;-69
2023/09/24 01:08:31;;;;;;;7.63;2.60;;;12.50;73.70;;;;;;5102125;28;20424;-69
2023/09/24 01:10:58;;;;;;;7.65;2.55;;;12.50;73.40;;;;;;5109387;28;20400;-69
2023/09/24 01:13:24;;;;;;;11.43;3.72;;;12.40;73.20;;;;;;5083358;28;20442;-70
2023/09/24 01:15:50;;;;;;;8.73;4.40;;;12.40;73.00;;;;;;5070960;28;20449;-69
2023/09/24 01:18:20;;;;;;;10.00;5.00;;;12.30;72.80;;;;;;5101021;28;20414;-69
2023/09/24 01:20:46;;;;;;;7.97;3.80;;;12.30;72.90;;;;;;5097854;28;20390;-69
2023/09/24 01:23:16;;;;;;;9.27;3.60;;;12.20;72.90;;;;;;5086186;28;20823;-69
2023/09/24 01:25:44;;;;;;;7.75;2.85;;;12.20;72.90;;;;;;5096853;28;20409;-69
2023/09/24 01:28:10;;;;;;;8.48;2.60;;;12.10;73.00;;;;;;5072512;28;20407;-69
2023/09/24 01:30:37;;;;;;;6.23;2.27;;;12.10;73.00;;;;;;5088390;28;20409;-69
2023/09/24 01:33:03;;;;;;;7.07;2.20;;;12.00;73.10;;;;;;5100158;28;20870;-69
2023/09/24 01:35:30;;;;;;;6.87;2.43;;;12.00;73.00;;;;;;5088079;28;20406;-69
2023/09/24 01:37:59;;;;;;;6.38;2.00;;;11.90;73.10;;;;;;5093276;28;20396;-68
2023/09/24 01:40:37;;;;;;;6.93;1.98;;;11.90;73.30;;;;;;5107871;28;20754;-69
2023/09/24 01:43:08;;;;;;;7.60;2.00;;;11.90;73.40;;;;;;5089652;28;20413;-69
2023/09/24 01:45:40;;;;;;;6.78;1.70;;;11.80;73.50;;;;;;5094185;28;20727;-69
2023/09/24 01:48:08;;;;;;;7.50;1.73;;;11.80;73.70;;;;;;5095792;28;20423;-69
2023/09/24 01:50:36;;;;;;;4.85;1.90;;;11.80;73.60;;;;;;5075970;28;20398;-69
2023/09/24 01:53:04;;;;;;;5.60;1.80;;;11.70;73.80;;;;;;5106563;28;20396;-69
2023/09/24 01:55:31;;;;;;;6.95;1.95;;;11.70;73.80;;;;;;5105616;28;20392;-69
2023/09/24 01:57:59;;;;;;;6.37;2.10;;;11.70;73.90;;;;;;5099066;28;20414;-68
2023/09/24 02:00:25;;;;;;;6.15;1.80;;;11.70;73.90;;;;;;5088174;28;20896;-68
2023/09/24 02:02:52;;;;;;;5.47;1.92;;;11.60;73.90;;;;;;5106047;28;20424;-69
2023/09/24 02:05:19;;;;;;;7.00;1.92;;;11.60;74.20;;;;;;5092375;28;20463;-68
2023/09/24 02:07:46;;;;;;;6.37;2.00;;;11.60;74.20;;;;;;5100339;28;20488;-69
2023/09/24 02:10:17;;;;;;;7.83;2.13;;;11.60;74.20;;;;;;5069344;28;20466;-69
2023/09/24 02:12:45;;;;;;;5.10;1.73;;;11.50;74.20;;;;;;5097387;28;20897;-68
2023/09/24 02:15:14;;;;;;;5.15;2.00;;;11.50;74.20;;;;;;5101672;28;20892;-68
2023/09/24 02:17:40;;;;;;;5.03;1.60;;;11.50;74.20;;;;;;5077680;28;20896;-69
2023/09/24 02:20:22;;;;;;;6.40;1.85;;;11.50;74.20;;;;;;5071570;28;20440;-69
2023/09/24 02:22:49;;;;;;;5.75;1.85;;;11.50;74.20;;;;;;5098459;28;20479;-68
2023/09/24 02:25:21;;;;;;;4.93;1.90;;;11.40;74.20;;;;;;5099349;28;20817;-69
2023/09/24 02:27:50;;;;;;;6.20;2.38;;;11.40;74.10;;;;;;5088283;28;20402;-69
2023/09/24 02:30:18;;;;;;;6.68;2.10;;;11.40;74.10;;;;;;5097766;28;20444;-69
2023/09/24 02:32:44;;;;;;;6.55;2.25;;;11.40;74.30;;;;;;5097829;28;20891;-69
2023/09/24 02:35:13;;;;;;;7.18;2.22;;;11.30;74.30;;;;;;5093372;28;20389;-69
2023/09/24 02:37:47;;;;;;;6.05;2.00;;;11.30;74.60;;;;;;5101769;28;20494;-69
2023/09/24 02:40:28;;;;;;;4.70;1.90;;;11.30;74.60;;;;;;5094638;28;20400;-69
2023/09/24 02:42:56;;;;;;;6.47;2.30;;;11.30;74.50;;;;;;5073231;28;20447;-69
2023/09/24 02:45:22;;;;;;;5.63;2.35;;;11.30;75.10;;;;;;5096541;28;20916;-68
2023/09/24 02:47:49;;;;;;;7.30;2.30;;;11.20;75.30;;;;;;5101098;28;20439;-69
2023/09/24 02:50:22;;;;;;;4.50;1.83;;;11.20;75.00;;;;;;5096481;28;21127;-69
2023/09/24 02:52:48;;;;;;;5.90;2.20;;;11.20;75.00;;;;;;5096386;28;20402;-69
2023/09/24 02:55:15;;;;;;;7.93;2.38;;;11.20;75.10;;;;;;5096268;28;20397;-69
2023/09/24 02:57:43;;;;;;;7.00;2.35;;;11.20;75.20;;;;;;5090280;28;20392;-69
2023/09/24 03:00:15;;;;;;;7.03;2.30;;;11.10;75.20;;;;;;5102080;28;20403;-69
2023/09/24 03:02:41;;;;;;;5.80;2.20;;;11.10;75.40;;;;;;5106413;28;20414;-69
2023/09/24 03:05:15;;;;;;;7.20;2.50;;;11.10;75.60;;;;;;5095878;28;20903;-68
2023/09/24 03:07:41;;;;;;;7.15;3.08;;;11.10;75.80;;;;;;5100544;28;20413;-69
2023/09/24 03:10:10;;;;;;;6.57;2.70;;;11.10;75.90;;;;;;5095041;28;20437;-69
2023/09/24 03:12:37;;;;;;;6.60;2.50;;;11.10;76.10;;;;;;5093305;28;20502;-69
2023/09/24 03:15:03;;;;;;;6.32;2.55;;;11.10;75.90;;;;;;5097114;28;20477;-69
2023/09/24 03:17:28;;;;;;;9.35;2.67;;;11.00;76.10;;;;;;5081945;28;20433;-69
2023/09/24 03:19:54;;;;;;;8.57;2.70;;;11.00;76.10;;;;;;5098948;28;20921;-69
2023/09/24 03:22:21;;;;;;;8.77;3.20;;;11.00;76.10;;;;;;5100796;28;20465;-69
2023/09/24 03:24:50;;;;;;;6.63;3.03;;;11.00;76.20;;;;;;5100530;28;20829;-69
2023/09/24 03:27:15;;;;;;;6.97;3.05;;;11.00;76.50;;;;;;5106771;28;20396;-69
2023/09/24 03:29:43;;;;;;;6.43;3.10;;;11.00;76.40;;;;;;5097784;28;20429;-70
2023/09/24 03:32:09;;;;;;;7.35;3.35;;;11.00;76.40;;;;;;5102929;28;20469;-70
2023/09/24 03:34:35;;;;;;;7.82;3.20;;;11.00;76.50;;;;;;5093474;28;20491;-70
2023/09/24 03:37:00;;;;;;;8.30;3.58;;;11.00;76.60;;;;;;5091380;28;20411;-70
2023/09/24 03:39:26;;;;;;;9.50;3.50;;;11.00;76.50;;;;;;5093713;28;20435;-70
2023/09/24 03:41:52;;;;;;;8.35;3.00;;;11.00;76.70;;;;;;5100592;28;20400;-69
2023/09/24 03:44:17;;;;;;;7.03;3.30;;;11.00;76.90;;;;;;5105555;28;20467;-69
2023/09/24 03:46:43;;;;;;;10.25;3.40;;;11.00;77.10;;;;;;5099960;28;20466;-69
2023/09/24 03:49:08;;;;;;;6.90;3.70;;;11.00;76.90;;;;;;5095787;28;20413;-69
2023/09/24 03:51:34;;;;;;;8.00;4.20;;;11.00;77.20;;;;;;5109377;28;20801;-69
2023/09/24 03:54:00;;;;;;;6.45;3.45;;;11.00;77.50;;;;;;5095064;28;20402;-69
2023/09/24 03:56:25;;;;;;;7.30;4.00;;;11.00;77.90;;;;;;5100629;28;20485;-69
2023/09/24 03:58:51;;;;;;;7.35;4.20;;;11.00;78.70;;;;;;5101365;28;20405;-70
2023/09/24 04:01:17;;;;;;;8.70;4.00;;;11.10;78.30;;;;;;5090291;28;20394;-70
2023/09/24 04:03:43;;;;;;;9.10;4.53;;;11.10;79.30;;;;;;5102725;28;20737;-70
2023/09/24 04:06:10;;;;;;;8.38;4.53;;;11.10;78.80;;;;;;5074753;28;20409;-70
2023/09/24 04:08:36;;;;;;;9.18;4.38;;;11.20;79.00;;;;;;5103500;28;20431;-70
2023/09/24 04:11:07;;;;;;;7.97;4.30;;;11.20;79.20;;;;;;5097789;28;20974;-70
2023/09/24 04:13:32;;;;;;;8.20;4.53;;;11.30;79.10;;;;;;5107551;28;20454;-70
2023/09/24 04:16:06;;;;;;;7.75;4.40;;;11.20;79.10;;;;;;5098544;28;20892;-70
2023/09/24 04:18:34;;;;;;;9.85;4.43;;;11.30;79.50;;;;;;5106255;28;20402;-70
2023/09/24 04:21:01;;;;;;;9.23;4.32;;;11.30;79.50;;;;;;5082451;28;20406;-70
2023/09/24 04:23:27;;;;;;;8.07;4.70;;;11.30;79.70;;;;;;5091800;28;20533;-70
2023/09/24 04:25:54;;;;;;;7.50;3.92;;;11.30;79.80;;;;;;5099049;28;20949;-70
2023/09/24 04:28:20;;;;;;;9.52;4.47;;;11.30;79.90;;;;;;5101789;28;20398;-70
2023/09/24 04:30:46;;;;;;;10.35;4.88;;;11.30;79.80;;;;;;5100005;28;20445;-70
2023/09/24 04:33:12;;;;;;;9.38;5.25;;;11.30;79.90;;;;;;5091592;28;20806;-70
2023/09/24 04:35:38;;;;;;;8.23;4.65;;;11.30;80.00;;;;;;5090036;28;20738;-70
2023/09/24 04:38:04;;;;;;;10.27;5.13;;;11.30;79.80;;;;;;5088560;28;20424;-70
2023/09/24 04:40:31;;;;;;;10.82;5.72;;;11.30;80.00;;;;;;5101028;28;20480;-70
2023/09/24 04:42:56;;;;;;;10.30;5.55;;;11.30;80.10;;;;;;5106680;28;20430;-70
2023/09/24 04:45:22;;;;;;;10.07;5.90;;;11.30;80.20;;;;;;5098336;28;20434;-70
2023/09/24 04:47:48;;;;;;;11.65;6.03;;;11.30;80.40;;;;;;5103668;28;20398;-70
2023/09/24 04:50:15;;;;;;;13.05;6.65;;;11.30;80.30;;;;;;5108995;28;20458;-70
2023/09/24 04:52:42;;;;;;;11.20;6.40;;;11.30;80.40;;;;;;5096250;28;20763;-70
2023/09/24 04:55:08;;;;;;;12.57;6.80;;;11.20;80.20;;;;;;5098640;28;20395;-68
2023/09/24 04:57:34;;;;;;;14.40;7.50;;;11.20;80.30;;;;;;5106423;28;20407;-69
2023/09/24 05:00:00;;;;;;;12.27;6.80;;;11.20;80.30;;;;;;5097762;28;21056;-69
2023/09/24 05:02:26;;;;;;;14.67;7.30;;;11.10;80.30;;;;;;5098959;28;20408;-69
2023/09/24 05:04:52;;;;;;;12.35;7.65;;;11.10;80.20;;;;;;5099318;28;20456;-69
2023/09/24 05:07:17;;;;;;;13.90;7.60;;;11.00;80.20;;;;;;5061014;28;20409;-69
2023/09/24 05:09:43;;;;;;;14.07;8.27;;;11.00;80.40;;;;;;5087123;28;20833;-70
2023/09/24 05:12:10;;;;;;;14.18;9.18;;;11.00;80.10;;;;;;5089289;28;20803;-70
2023/09/24 05:14:36;;;;;;;15.52;9.40;;;10.90;80.10;;;;;;5089152;28;20463;-70
2023/09/24 05:17:01;;;;;;;14.00;9.07;;;10.90;80.10;;;;;;5105459;28;20766;-70
2023/09/24 05:19:27;;;;;;;15.00;9.18;;;10.80;80.10;;;;;;5099006;28;20487;-69
2023/09/24 05:21:53;;;;;;;16.42;9.40;;;10.80;80.00;;;;;;5095006;28;20822;-70
2023/09/24 05:24:18;;;;;;;16.17;9.27;;;10.70;80.20;;;;;;5104667;28;20457;-70
2023/09/24 05:26:44;;;;;;;15.82;9.10;;;10.70;80.10;;;;;;5102209;28;20393;-70
2023/09/24 05:29:10;;;;;;;13.48;8.82;;;10.60;80.30;;;;;;5108441;28;20504;-70
2023/09/24 05:31:36;;;;;;;14.27;9.10;;;10.70;80.60;;;;;;5101691;28;20407;-70
2023/09/24 05:34:04;;;;;;;13.75;9.05;;;10.60;80.90;;;;;;5078001;28;20903;-70
2023/09/24 05:36:30;;;;;;;14.27;9.07;;;10.60;81.10;;;;;;5093656;28;20452;-70
2023/09/24 05:38:56;;;;;;;15.70;9.20;;;10.60;81.10;;;;;;5108368;28;20830;-70
2023/09/24 05:41:22;;;;;;;16.73;9.40;;;10.70;81.10;;;;;;5088448;28;20451;-70
2023/09/24 05:43:48;;;;;;;16.30;9.63;;;10.60;81.00;;;;;;5088876;28;20406;-70
2023/09/24 05:46:14;;;;;;;15.23;9.32;;;10.60;81.10;;;;;;5089026;28;20407;-70
2023/09/24 05:48:40;;;;;;;14.27;9.45;;;10.60;81.10;;;;;;5107376;28;20454;-70
2023/09/24 05:51:07;;;;;;;16.20;9.32;;;10.70;81.40;;;;;;5093581;28;20472;-70
2023/09/24 05:53:33;;;;;;;14.23;9.07;;;10.60;81.30;;;;;;5108221;28;20436;-69
2023/09/24 05:55:58;;;;;;;15.05;9.18;;;10.60;81.10;;;;;;5104573;28;20412;-69
2023/09/24 05:58:24;;;;;;;13.70;9.00;;;10.70;81.70;;;;;;5105571;28;20392;-69
2023/09/24 06:00:52;;;;;;;14.87;8.70;;;10.70;81.90;;;;;;5098478;28;20528;-69
2023/09/24 06:03:19;;;;;;;14.02;9.32;;;10.70;82.00;;;;;;5098034;28;20404;-69
2023/09/24 06:05:44;;;;;;;13.95;8.70;;;10.70;82.10;;;;;;5098226;28;20393;-68
2023/09/24 06:08:10;;;;;;;13.77;9.43;;;10.80;82.10;;;;;;5097857;28;20905;-68
2023/09/24 06:10:45;;;;;;;15.52;9.68;;;10.80;82.10;;;;;;5098392;28;21512;-69
2023/09/24 06:13:15;;;;;;;16.83;9.90;;;10.80;82.10;;;;;;5098454;28;20412;-68
2023/09/24 06:15:42;;;;;;;14.15;8.80;;;10.80;82.20;;;;;;5100662;28;20531;-69
2023/09/24 06:18:09;;;;;;;13.23;9.07;;;10.80;82.10;;;;;;5097774;28;20922;-69
2023/09/24 06:20:38;;;;;;;14.98;9.48;;;10.80;82.20;;;;;;5103936;28;20396;-69
2023/09/24 06:23:04;;;;;;;16.50;9.05;;;10.80;82.30;;;;;;5100341;28;20532;-68
2023/09/24 06:25:30;;;;;;;13.98;8.57;;;10.90;82.60;;;;;;5094548;28;20901;-69
2023/09/24 06:27:56;;;;;;;12.97;9.10;;;10.90;82.70;;;;;;5090844;28;20401;-69
2023/09/24 06:30:22;;;;;;;14.40;8.65;;;10.90;82.60;;;;;;5087969;28;20428;-69
2023/09/24 06:32:48;;;;;;;14.33;8.90;;;11.00;82.90;;;;;;5072794;28;20402;-68
2023/09/24 06:35:13;;;;;;;15.20;9.43;;;11.00;82.80;;;;;;5098331;28;20398;-69
2023/09/24 06:37:39;;;;;;;15.40;9.40;;;11.00;82.80;;;;;;5100085;28;20440;-69
2023/09/24 06:40:05;;;;;;;14.45;8.98;;;11.10;83.10;;;;;;5098876;28;20397;-69
2023/09/24 06:42:31;;;;;;;14.90;9.07;;;11.10;83.10;;;;;;5088149;28;20397;-69
2023/09/24 06:44:57;;;;;;;14.13;9.07;;;11.10;83.10;;;;;;5057252;28;20841;-69
2023/09/24 06:47:22;;;;;;;16.08;8.80;;;11.20;83.20;;;;;;5088120;28;20406;-69
2023/09/24 06:49:51;;;;;;;13.03;8.47;;;11.20;82.80;;;;;;5106082;28;20420;-69
2023/09/24 06:52:17;;;;;;;13.70;8.50;;;11.20;83.20;;;;;;5075714;28;20412;-69
2023/09/24 06:54:42;;;;;;;14.07;9.23;;;11.30;83.40;;;;;;5081871;28;20908;-69
2023/09/24 06:57:08;;;;;;;14.52;8.50;;;11.40;83.40;;;;;;5099906;28;20749;-68
2023/09/24 06:59:34;;;;;;;12.43;8.47;;;11.40;83.30;;;;;;5087435;28;20431;-69
2023/09/24 07:01:59;;;;;;;12.23;8.60;;;11.40;83.40;;;;;;5089906;28;20476;-69
2023/09/24 07:04:25;;;;;;;14.87;8.47;;;11.50;83.40;;;;;;5102501;28;20398;-69
2023/09/24 07:06:51;;;;;;;15.38;9.20;;;11.60;83.50;;;;;;5091277;28;20918;-69
2023/09/24 07:09:17;;;;;;;11.97;7.47;;;11.60;83.60;;;;;;5093758;28;20463;-69
2023/09/24 07:11:43;;;;;;;11.30;7.85;;;11.70;83.70;;;;;;5104239;28;20484;-69
2023/09/24 07:14:09;;;;;;;11.93;7.45;;;11.70;83.50;;;;;;5098162;28;20773;-69
2023/09/24 07:16:35;;;;;;;12.20;7.40;;;11.80;83.30;;;;;;5107598;28;20413;-69
2023/09/24 07:19:01;;;;;;;12.48;7.10;;;11.80;83.20;;;;;;5097764;28;20777;-69
2023/09/24 07:21:29;;;;;;;11.75;7.35;;;11.90;83.10;;;;;;5110685;28;20404;-69
2023/09/24 07:23:56;;;;;;;11.32;7.20;;;11.90;83.30;;;;;;5098517;28;20408;-69
2023/09/24 07:26:23;;;;;;;11.55;6.88;;;12.00;83.10;;;;;;5106698;28;20400;-69
2023/09/24 07:28:49;;;;;;;12.43;7.15;;;12.00;82.80;;;;;;5098884;28;20431;-69
2023/09/24 07:31:19;;;;;;;11.65;6.75;;;12.10;83.00;;;;;;5093618;28;20401;-69
2023/09/24 07:33:44;;;;;;;11.20;6.40;;;12.10;83.00;;;;;;5083368;28;20411;-69
2023/09/24 07:36:11;;;;;;;10.07;6.63;;;12.20;83.00;;;;;;5093747;28;20402;-69
2023/09/24 07:38:36;;;;;;;11.27;6.70;;;12.30;83.20;;;;;;5069720;28;20397;-70
2023/09/24 07:41:02;;;;;;;9.73;5.97;;;12.40;83.20;;;;;;5100308;28;20470;-70
2023/09/24 07:43:28;;;;;;;11.80;6.38;;;12.40;82.70;;;;;;5089982;28;21017;-70
2023/09/24 07:45:54;;;;;;;11.50;6.65;;;12.40;82.50;;;;;;5094515;28;20392;-70
2023/09/24 07:48:19;;;;;;;9.97;5.77;;;12.50;82.50;;;;;;5091329;28;20772;-70
2023/09/24 07:50:54;;;;;;;13.52;6.47;;;12.60;82.20;;;;;;5091871;28;20462;-70
2023/09/24 07:53:23;;;;;;;11.50;5.60;;;12.60;82.10;;;;;;5096039;28;20455;-70
2023/09/24 07:55:57;;;;;;;9.23;5.55;;;12.70;81.60;;;;;;5086282;28;20410;-70
2023/09/24 07:58:24;;;;;;;10.50;5.70;;;12.80;81.40;;;;;;5090319;28;20410;-70
2023/09/24 08:00:51;;;;;;;8.20;5.43;;;12.80;81.30;;;;;;5092866;28;20396;-70
2023/09/24 08:03:17;;;;;;;12.10;5.65;;;12.90;81.00;;;;;;5091547;28;20952;-70
2023/09/24 08:05:43;;;;;;;11.47;5.43;;;12.90;80.40;;;;;;5101023;28;20410;-69
2023/09/24 08:08:08;;;;;;;11.00;5.43;;;13.00;80.20;;;;;;5072576;28;20509;-69
2023/09/24 08:10:34;;;;;;;11.95;5.75;;;13.10;79.90;;;;;;5097218;28;20794;-70
2023/09/24 08:13:02;;;;;;;9.25;5.63;;;13.20;79.70;;;;;;5090324;28;20408;-70
2023/09/24 08:15:28;;;;;;;10.48;5.40;;;13.20;79.40;;;;;;5097807;28;20414;-70
2023/09/24 08:17:54;;;;;;;11.43;5.73;;;13.30;78.60;;;;;;5101699;28;20406;-70
2023/09/24 08:20:20;;;;;;;10.80;5.90;;;13.40;78.30;;;;;;5103317;28;20484;-70
2023/09/24 08:22:45;;;;;;;10.53;6.10;;;13.50;78.30;;;;;;5100639;28;20411;-70
2023/09/24 08:25:11;;;;;;;13.87;6.00;;;13.50;78.10;;;;;;5105461;28;20420;-70
2023/09/24 08:27:37;;;;;;;10.48;5.32;;;13.60;77.60;;;;;;5090129;28;20416;-70
2023/09/24 08:30:03;;;;;;;9.77;5.28;;;13.70;77.10;;;;;;5090650;28;20807;-69
2023/09/24 08:32:29;;;;;;;12.48;5.78;;;13.80;76.80;;;;;;5088916;28;20390;-69
2023/09/24 08:34:54;;;;;;;9.50;5.30;;;13.80;76.30;;;;;;5091421;28;20753;-70
2023/09/24 08:37:20;;;;;;;8.48;4.97;;;13.90;75.90;;;;;;5089551;28;20438;-70
2023/09/24 08:39:46;;;;;;;9.47;4.90;;;14.00;75.20;;;;;;5103671;28;20436;-70
2023/09/24 08:42:15;;;;;;;9.35;4.70;;;14.10;74.80;;;;;;5106571;28;20741;-69
2023/09/24 08:44:41;;;;;;;8.88;4.28;;;14.10;74.20;;;;;;5098683;28;20485;-70
2023/09/24 08:47:08;;;;;;;10.00;4.00;;;14.20;73.40;;;;;;5100834;28;21070;-68
2023/09/24 08:49:35;;;;;;;8.57;3.30;;;14.30;71.20;;;;;;5090470;28;20437;-69
2023/09/24 08:52:03;;;;;;;8.55;3.60;;;14.30;68.80;;;;;;5089286;28;20398;-69
2023/09/24 08:54:30;;;;;;;7.60;3.25;;;14.40;66.70;;;;;;5071222;28;20414;-69
2023/09/24 08:56:56;;;;;;;8.07;3.28;;;14.50;66.20;;;;;;5102938;28;20397;-67
2023/09/24 08:59:22;;;;;;;7.17;3.03;;;14.60;66.10;;;;;;5096420;28;20493;-66
2023/09/24 09:01:54;;;;;;;6.88;2.90;;;14.70;64.20;;;;;;5091960;28;20461;-68
2023/09/24 09:04:20;;;;;;;6.57;3.08;;;14.80;61.70;;;;;;5105657;28;20487;-70
2023/09/24 09:06:46;;;;;;;6.35;3.08;;;14.90;60.90;;;;;;5103075;28;20481;-70
2023/09/24 09:09:26;;;;;;;7.03;2.60;;;15.20;70.30;;;;;;5091232;28;20438;-70
2023/09/24 09:11:51;;;;;;;6.15;2.80;;;16.10;77.90;;;;;;5090091;28;20400;-67
2023/09/24 09:14:34;;;;;;;6.28;2.70;;;17.20;70.70;;;;;;5090581;28;20598;-70
2023/09/24 09:16:59;;;;;;;6.60;2.40;;;18.30;54.60;;;;;;5092907;28;20415;-69
2023/09/24 09:19:44;;;;;;;6.47;2.30;;;19.20;33.20;;;;;;5094783;28;20461;-69
2023/09/24 09:22:20;;;;;;;6.45;2.40;;;20.00;22.70;;;;;;5107857;28;20388;-69
2023/09/24 09:24:48;;;;;;;5.40;2.10;;;20.80;12.60;;;;;;5093373;28;20921;-70
2023/09/24 09:27:14;;;;;;;5.45;1.98;;;21.40;5.90;;;;;;5106768;28;20416;-71
2023/09/24 09:29:40;;;;;;;4.67;1.80;;;21.90;1.00;;;;;;5104899;28;20473;-69
2023/09/24 09:32:05;;;;;;;5.80;1.80;;;22.20;1.00;;;;;;5103428;28;20765;-70
2023/09/24 09:34:32;;;;;;;5.20;1.70;;;22.50;1.00;;;;;;5106033;28;20835;-70
2023/09/24 09:37:17;;;;;;;5.47;1.80;;;22.70;1.00;;;;;;5106103;28;20491;-70
2023/09/24 09:39:43;;;;;;;4.55;1.75;;;23.00;1.00;;;;;;5095264;28;21215;-70
2023/09/24 09:42:14;;;;;;;5.00;1.40;;;23.20;1.00;;;;;;5100481;28;20410;-70
2023/09/24 09:44:42;;;;;;;6.95;1.80;;;23.40;1.00;;;;;;5097056;28;20423;-70
2023/09/24 09:47:11;;;;;;;7.03;1.98;;;23.60;1.00;;;;;;5089836;28;20486;-69
2023/09/24 09:49:42;;;;;;;3.90;1.58;;;24.10;1.00;;;;;;5098353;28;20421;-70
2023/09/24 09:52:13;;;;;;;6.90;1.67;;;24.50;1.00;;;;;;5071915;28;20926;-70
2023/09/24 09:54:39;;;;;;;5.00;1.42;;;24.70;1.00;;;;;;5095936;28;20418;-70
2023/09/24 09:57:05;;;;;;;5.43;1.40;;;24.90;1.00;;;;;;5099638;28;20421;-70
2023/09/24 09:59:34;;;;;;;5.50;1.92;;;25.10;1.00;;;;;;5073127;28;20405;-70
2023/09/24 10:02:01;;;;;;;6.18;1.92;;;25.10;99.90;;;;;;5102041;28;20412;-71
2023/09/24 10:04:30;;;;;;;6.10;1.90;;;25.10;99.90;;;;;;5105342;28;20424;-71
2023/09/24 10:06:56;;;;;;;5.95;1.83;;;25.20;99.90;;;;;;5100649;28;20920;-70
2023/09/24 10:09:29;;;;;;;4.73;1.40;;;25.30;99.90;;;;;;5096557;28;20424;-71
2023/09/24 10:11:56;;;;;;;6.72;1.90;;;25.40;99.90;;;;;;5088842;28;20424;-70
2023/09/24 10:14:38;;;;;;;5.05;1.45;;;25.50;99.90;;;;;;5101473;28;20392;-70
2023/09/24 10:17:16;;;;;;;6.25;1.85;;;25.80;99.90;;;;;;5089696;28;20484;-70
2023/09/24 10:20:08;;;;;;;5.45;1.63;;;26.10;99.90;;;;;;5103040;28;20430;-70
2023/09/24 10:22:35;;;;;;;5.22;1.40;;;26.20;99.90;;;;;;5101380;28;20770;-70
2023/09/24 10:25:22;;;;;;;4.60;1.60;;;26.30;99.90;;;;;;5099618;28;20406;-70
2023/09/24 10:28:04;;;;;;;4.90;1.43;;;26.40;99.90;;;;;;5087677;28;20421;-70
2023/09/24 10:31:02;;;;;;;5.35;1.30;;;26.50;99.90;;;;;;5088034;28;20943;-69
2023/09/24 10:33:52;;;;;;;4.45;1.20;;;26.60;99.90;;;;;;5096860;28;20398;-70
2023/09/24 10:36:25;;;;;;;4.60;1.33;;;26.70;96.70;;;;;;5095659;28;20406;-70
2023/09/24 10:39:00;;;;;;;4.40;1.40;;;27.00;23.30;;;;;;5097032;28;20394;-70
2023/09/24 10:41:25;;;;;;;3.92;1.23;;;27.20;1.00;;;;;;5101147;28;20951;-70
2023/09/24 10:44:24;;;;;;;4.50;1.27;;;27.40;99.90;;;;;;5094803;28;20404;-70
2023/09/24 10:46:50;;;;;;;5.13;1.15;;;27.50;75.40;;;;;;5094609;28;20398;-70
2023/09/24 10:49:26;;;;;;;4.20;1.17;;;27.60;99.90;;;;;;5093078;28;21189;-70
2023/09/24 10:51:58;;;;;;;5.38;1.25;;;27.60;99.90;;;;;;5102720;28;20438;-70
2023/09/24 10:54:24;;;;;;;4.57;1.33;;;27.50;99.90;;;;;;5090757;28;20473;-71
2023/09/24 10:56:50;;;;;;;6.25;1.40;;;27.40;99.90;;;;;;5090787;28;20516;-71
2023/09/24 10:59:16;;;;;;;4.43;1.10;;;27.50;99.90;;;;;;5076081;28;20459;-70
2023/09/24 11:01:44;;;;;;;5.63;1.53;;;27.70;99.90;;;;;;5090012;28;20394;-70
2023/09/24 11:04:10;;;;;;;4.20;1.02;;;27.80;99.90;;;;;;5094334;28;20814;-70
2023/09/24 11:06:36;;;;;;;4.80;1.00;;;28.10;1.00;;;;;;5105686;28;20495;-70
2023/09/24 11:09:21;;;;;;;4.90;1.20;;;28.30;99.90;;;;;;5094990;28;20477;-70
2023/09/24 11:11:47;;;;;;;4.57;1.15;;;28.30;1.00;;;;;;5079874;28;20463;-70
2023/09/24 11:14:22;;;;;;;3.67;0.93;;;28.30;3.40;;;;;;5091138;28;20390;-70
2023/09/24 11:16:53;;;;;;;4.10;1.20;;;28.10;99.90;;;;;;5099137;28;20484;-70
2023/09/24 11:19:45;;;;;;;4.97;1.48;;;28.20;99.90;;;;;;5096059;28;20428;-70
2023/09/24 11:22:24;;;;;;;4.47;1.42;;;28.30;1.00;;;;;;5073167;28;20414;-70
2023/09/24 11:25:09;;;;;;;4.85;1.27;;;28.40;1.00;;;;;;5079886;28;20485;-70
2023/09/24 11:27:52;;;;;;;5.27;1.10;;;28.50;99.90;;;;;;5107582;28;20415;-70
2023/09/24 11:30:19;;;;;;;4.22;1.20;;;28.60;41.20;;;;;;5090185;28;20799;-70
2023/09/24 11:32:49;;;;;;;4.38;1.20;;;28.50;99.90;;;;;;5096120;28;21059;-70
2023/09/24 11:35:25;;;;;;;5.38;1.23;;;28.50;99.90;;;;;;5093642;28;20408;-70
2023/09/24 11:37:58;;;;;;;4.20;1.20;;;28.40;91.80;;;;;;5093743;28;20406;-70
2023/09/24 11:40:34;;;;;;;4.45;1.20;;;28.40;99.90;;;;;;5093687;28;20490;-70
2023/09/24 11:43:16;;;;;;;4.50;1.45;;;28.50;99.90;;;;;;5094105;28;20467;-70
2023/09/24 11:45:46;;;;;;;4.22;1.23;;;28.50;1.00;;;;;;5092217;28;20487;-70
2023/09/24 11:48:20;;;;;;;4.93;1.30;;;28.60;1.00;;;;;;5092226;28;20402;-70
2023/09/24 11:50:47;;;;;;;3.42;1.17;;;28.80;1.00;;;;;;5090567;28;20433;-71
2023/09/24 11:53:14;;;;;;;3.65;0.88;;;28.90;1.00;;;;;;5091831;28;20505;-71
2023/09/24 11:55:43;;;;;;;5.57;1.33;;;29.10;1.00;;;;;;5091753;28;20402;-71
2023/09/24 11:58:11;;;;;;;4.03;1.27;;;29.20;99.90;;;;;;5091356;28;20450;-71
2023/09/24 12:00:38;;;;;;;4.82;1.20;;;29.20;99.90;;;;;;5090502;28;20390;-71
2023/09/24 12:03:05;;;;;;;4.05;1.10;;;29.30;99.90;;;;;;5083904;28;20440;-70
2023/09/24 12:05:32;;;;;;;4.57;1.27;;;29.40;99.90;;;;;;5105088;28;20430;-70
2023/09/24 12:07:58;;;;;;;4.90;1.13;;;29.40;1.00;;;;;;5090255;28;20911;-70
2023/09/24 12:10:24;;;;;;;3.95;1.17;;;29.50;1.00;;;;;;5089760;28;20453;-71
2023/09/24 12:12:50;;;;;;;4.67;1.50;;;29.50;1.00;;;;;;5091410;28;20902;-70
2023/09/24 12:15:19;;;;;;;5.63;1.20;;;29.70;1.00;;;;;;5102769;28;20393;-71
2023/09/24 12:17:46;;;;;;;7.33;1.13;;;29.80;99.90;;;;;;5090477;28;20405;-71
2023/09/24 12:20:13;;;;;;;4.25;1.10;;;29.70;99.90;;;;;;5090222;28;20390;-71
2023/09/24 12:22:41;;;;;;;5.43;1.43;;;29.60;99.90;;;;;;5072311;28;20756;-71
2023/09/24 12:25:08;;;;;;;3.58;1.20;;;29.50;99.90;;;;;;5089893;28;20410;-71
2023/09/24 12:27:33;;;;;;;3.75;1.00;;;29.20;99.90;;;;;;5092182;28;20482;-71
2023/09/24 12:29:59;;;;;;;4.00;1.10;;;29.20;99.90;;;;;;5109392;28;20514;-70
2023/09/24 12:32:24;;;;;;;3.83;1.05;;;29.20;99.90;;;;;;5108504;28;20879;-70
2023/09/24 12:34:51;;;;;;;3.57;0.87;;;29.10;99.90;;;;;;5100826;28;20847;-71
2023/09/24 12:37:16;;;;;;;3.60;0.90;;;29.00;99.90;;;;;;5073502;28;21171;-71
2023/09/24 12:39:42;;;;;;;3.90;0.87;;;29.00;99.90;;;;;;5101371;28;20485;-71
2023/09/24 12:42:08;;;;;;;3.57;1.00;;;29.00;99.90;;;;;;5090398;28;20423;-71
2023/09/24 12:44:33;;;;;;;4.72;1.00;;;29.00;99.90;;;;;;5090135;28;20415;-71
2023/09/24 12:46:59;;;;;;;3.35;0.98;;;29.20;99.90;;;;;;5101332;28;20410;-71
2023/09/24 12:49:25;;;;;;;4.07;1.10;;;29.40;99.90;;;;;;5093625;28;20826;-71
2023/09/24 12:51:50;;;;;;;4.47;1.00;;;29.30;99.90;;;;;;5091783;28;20414;-71